Time;durP1;ratioP1;P1;durP2;ratioP2;P2;SDS_P1;SDS_P2;PMS_P1;PMS_P2;Temp;Humidity;BMP_temperature;BMP_pressure;BME280_temperature;BME280_humidity;BME280_pressure;Samples;Min_cycle;Max_cycle;Signal;HPM_P1;HPM_P2
2021/11/21 00:00:15;;;;;;;31.53;21.50;;;;;;;;;;5016621;28;20446;-78
2021/11/21 00:02:43;;;;;;;34.07;23.30;;;;;;;;;;5030545;28;20478;-77
2021/11/21 00:05:12;;;;;;;34.20;23.37;;;;;;;;;;5016398;28;20463;-76
2021/11/21 00:07:39;;;;;;;31.77;20.70;;;;;;;;;;5036128;28;20446;-76
2021/11/21 00:10:06;;;;;;;34.70;22.73;;;;;;;;;;5035846;28;20442;-76
2021/11/21 00:12:34;;;;;;;32.27;22.27;;;;;;;;;;5024364;28;20474;-77
2021/11/21 00:15:01;;;;;;;30.23;19.30;;;;;;;;;;5034970;28;20524;-76
2021/11/21 00:17:28;;;;;;;33.67;22.07;;;;;;;;;;5040940;28;21000;-77
2021/11/21 00:19:57;;;;;;;34.03;22.07;;;;;;;;;;5033238;28;20442;-77
2021/11/21 00:22:25;;;;;;;33.23;21.23;;;;;;;;;;5030178;28;20489;-77
2021/11/21 00:24:52;;;;;;;32.70;21.53;;;;;;;;;;5014674;28;20463;-77
2021/11/21 00:27:21;;;;;;;30.03;20.90;;;;;;;;;;5013913;28;20449;-77
2021/11/21 00:29:50;;;;;;;28.53;19.57;;;;;;;;;;5037379;28;20974;-76
2021/11/21 00:32:17;;;;;;;29.73;19.87;;;;;;;;;;5037016;28;20469;-76
2021/11/21 00:34:45;;;;;;;28.00;20.13;;;;;;;;;;5040496;28;20882;-77
2021/11/21 00:37:13;;;;;;;29.70;18.87;;;;;;;;;;5033452;28;20489;-76
2021/11/21 00:39:40;;;;;;;30.67;19.17;;;;;;;;;;5033975;28;20438;-75
2021/11/21 00:42:08;;;;;;;34.50;20.80;;;;;;;;;;5032651;28;20461;-76
2021/11/21 00:44:35;;;;;;;32.60;20.87;;;;;;;;;;5034233;28;20454;-76
2021/11/21 00:47:02;;;;;;;30.77;20.50;;;;;;;;;;5042204;28;20425;-76
2021/11/21 00:49:29;;;;;;;30.77;19.90;;;;;;;;;;5032381;28;20982;-75
2021/11/21 00:51:57;;;;;;;33.27;20.27;;;;;;;;;;5030569;28;20848;-77
2021/11/21 00:54:29;;;;;;;31.13;20.43;;;;;;;;;;5013090;28;20459;-76
2021/11/21 00:56:56;;;;;;;29.63;19.90;;;;;;;;;;5013536;28;20950;-75
2021/11/21 00:59:24;;;;;;;28.80;20.60;;;;;;;;;;5020597;28;20462;-76
2021/11/21 01:01:52;;;;;;;31.20;19.47;;;;;;;;;;5036297;28;20846;-76
2021/11/21 01:04:19;;;;;;;29.03;18.43;;;;;;;;;;5040597;28;21148;-75
2021/11/21 01:06:46;;;;;;;30.67;19.43;;;;;;;;;;5051987;28;20445;-76
2021/11/21 01:09:14;;;;;;;29.83;19.27;;;;;;;;;;5051620;28;20445;-77
2021/11/21 01:11:42;;;;;;;29.60;19.77;;;;;;;;;;5034702;28;20472;-75
2021/11/21 01:14:10;;;;;;;30.10;18.87;;;;;;;;;;5050419;28;20453;-75
2021/11/21 01:16:38;;;;;;;29.50;18.00;;;;;;;;;;5017942;28;20495;-76
2021/11/21 01:19:05;;;;;;;24.57;18.13;;;;;;;;;;5023010;28;20451;-76
2021/11/21 01:21:32;;;;;;;28.13;17.37;;;;;;;;;;5044254;28;20464;-76
2021/11/21 01:23:59;;;;;;;26.00;18.13;;;;;;;;;;5012050;28;20967;-75
2021/11/21 01:26:26;;;;;;;30.93;19.40;;;;;;;;;;5011201;28;20439;-76
2021/11/21 01:28:55;;;;;;;28.50;16.97;;;;;;;;;;5012603;28;20449;-76
2021/11/21 01:31:22;;;;;;;26.27;17.60;;;;;;;;;;5023589;28;20569;-76
2021/11/21 01:33:49;;;;;;;24.57;17.00;;;;;;;;;;5038093;28;20450;-76
2021/11/21 01:36:17;;;;;;;21.93;14.73;;;;;;;;;;5042821;28;20484;-76
2021/11/21 01:38:44;;;;;;;23.43;17.00;;;;;;;;;;5052308;28;20445;-76
2021/11/21 01:41:11;;;;;;;26.93;16.77;;;;;;;;;;5038485;28;20482;-80
2021/11/21 01:43:39;;;;;;;24.50;15.97;;;;;;;;;;5015192;28;20521;-79
2021/11/21 01:46:07;;;;;;;23.90;16.60;;;;;;;;;;5016082;28;20965;-80
2021/11/21 01:48:35;;;;;;;27.70;16.83;;;;;;;;;;5014862;28;20451;-78
2021/11/21 01:51:04;;;;;;;27.97;16.90;;;;;;;;;;5014787;28;20471;-80
2021/11/21 01:53:32;;;;;;;23.90;15.93;;;;;;;;;;5013684;28;20478;-80
2021/11/21 01:55:59;;;;;;;26.60;18.17;;;;;;;;;;5037727;28;20831;-79
2021/11/21 01:58:26;;;;;;;24.97;18.43;;;;;;;;;;5036975;28;20443;-79
2021/11/21 02:00:53;;;;;;;26.90;16.37;;;;;;;;;;5031933;28;20865;-79
2021/11/21 02:03:22;;;;;;;19.30;13.87;;;;;;;;;;5013327;28;20454;-80
2021/11/21 02:05:50;;;;;;;20.80;13.60;;;;;;;;;;5032130;28;20953;-79
2021/11/21 02:08:17;;;;;;;22.03;14.70;;;;;;;;;;5014866;28;20805;-78
2021/11/21 02:10:45;;;;;;;18.83;13.93;;;;;;;;;;5032518;28;20462;-80
2021/11/21 02:13:12;;;;;;;20.07;13.27;;;;;;;;;;5034168;28;20453;-79
2021/11/21 02:15:40;;;;;;;18.17;13.30;;;;;;;;;;5033839;28;20529;-78
2021/11/21 02:18:07;;;;;;;17.80;13.20;;;;;;;;;;5038301;28;20476;-80
2021/11/21 02:20:49;;;;;;;20.73;14.03;;;;;;;;;;5037279;28;20934;-79
2021/11/21 02:23:18;;;;;;;25.57;14.13;;;;;;;;;;5017168;28;20456;-79
2021/11/21 02:25:45;;;;;;;21.80;14.43;;;;;;;;;;5016108;28;20545;-78
2021/11/21 02:28:12;;;;;;;21.80;14.70;;;;;;;;;;5012114;28;20537;-79
2021/11/21 02:30:40;;;;;;;21.00;14.27;;;;;;;;;;5024545;28;20939;-78
2021/11/21 02:33:10;;;;;;;18.20;12.40;;;;;;;;;;5032814;28;20446;-79
2021/11/21 02:35:39;;;;;;;17.57;12.20;;;;;;;;;;5032532;28;20959;-78
2021/11/21 02:38:06;;;;;;;19.40;13.80;;;;;;;;;;5037506;28;20901;-78
2021/11/21 02:40:35;;;;;;;16.63;12.33;;;;;;;;;;5034486;28;20449;-79
2021/11/21 02:43:02;;;;;;;19.33;12.73;;;;;;;;;;5029455;28;21024;-79
2021/11/21 02:45:29;;;;;;;21.93;13.47;;;;;;;;;;5031304;28;20962;-78
2021/11/21 02:47:57;;;;;;;19.77;12.70;;;;;;;;;;5015253;28;20513;-79
2021/11/21 02:50:25;;;;;;;21.53;14.07;;;;;;;;;;5025523;28;20536;-79
2021/11/21 02:52:53;;;;;;;19.73;12.80;;;;;;;;;;5038659;28;20472;-79
2021/11/21 02:55:21;;;;;;;20.07;13.67;;;;;;;;;;5046235;28;20449;-79
2021/11/21 02:57:49;;;;;;;21.30;14.30;;;;;;;;;;5051036;28;20485;-79
2021/11/21 03:00:17;;;;;;;21.43;14.27;;;;;;;;;;5035676;28;20462;-78
2021/11/21 03:02:46;;;;;;;23.83;15.60;;;;;;;;;;5011689;28;20466;-78
2021/11/21 03:05:13;;;;;;;21.07;15.17;;;;;;;;;;5009172;28;20985;-78
2021/11/21 03:07:40;;;;;;;26.37;14.33;;;;;;;;;;5039382;28;20434;-78
2021/11/21 03:10:09;;;;;;;22.13;15.13;;;;;;;;;;5045966;28;20437;-78
2021/11/21 03:12:36;;;;;;;24.30;14.77;;;;;;;;;;5038736;28;20996;-79
2021/11/21 03:15:05;;;;;;;21.40;14.67;;;;;;;;;;5015630;28;20446;-78
2021/11/21 03:17:32;;;;;;;22.60;14.60;;;;;;;;;;5015191;28;20565;-78
2021/11/21 03:20:00;;;;;;;23.40;14.17;;;;;;;;;;5024168;28;20462;-79
2021/11/21 03:22:27;;;;;;;24.10;14.63;;;;;;;;;;5037333;28;20831;-78
2021/11/21 03:24:54;;;;;;;22.30;14.60;;;;;;;;;;5037880;28;20453;-77
2021/11/21 03:27:23;;;;;;;25.37;15.70;;;;;;;;;;5038009;28;20942;-79
2021/11/21 03:29:50;;;;;;;22.63;14.53;;;;;;;;;;5041523;28;21433;-78
2021/11/21 03:32:19;;;;;;;23.60;16.20;;;;;;;;;;5047672;28;20492;-77
2021/11/21 03:34:46;;;;;;;26.17;16.23;;;;;;;;;;5055487;28;20445;-78
2021/11/21 03:37:13;;;;;;;21.70;14.57;;;;;;;;;;5030023;28;20589;-80
2021/11/21 03:39:41;;;;;;;25.40;15.27;;;;;;;;;;5014140;28;20461;-78
2021/11/21 03:42:08;;;;;;;23.10;15.97;;;;;;;;;;5025654;28;20469;-79
2021/11/21 03:44:35;;;;;;;24.37;16.00;;;;;;;;;;5017849;28;20462;-78
2021/11/21 03:47:02;;;;;;;23.83;15.93;;;;;;;;;;5018897;28;20466;-79
2021/11/21 03:49:31;;;;;;;29.87;16.50;;;;;;;;;;5002930;28;20449;-79
2021/11/21 03:51:58;;;;;;;28.13;17.43;;;;;;;;;;5040575;28;20481;-78
2021/11/21 03:54:26;;;;;;;26.70;17.27;;;;;;;;;;5034913;28;20682;-78
2021/11/21 03:56:53;;;;;;;26.87;17.20;;;;;;;;;;5013272;28;20859;-79
2021/11/21 03:59:20;;;;;;;26.93;15.73;;;;;;;;;;4997725;28;20454;-79
2021/11/21 04:01:47;;;;;;;27.70;16.33;;;;;;;;;;5013824;28;20822;-78
2021/11/21 04:04:15;;;;;;;25.00;14.87;;;;;;;;;;5019776;28;20983;-80
2021/11/21 04:06:43;;;;;;;23.53;15.63;;;;;;;;;;5033578;28;20421;-78
2021/11/21 04:09:10;;;;;;;23.57;15.30;;;;;;;;;;5042138;28;20445;-79
2021/11/21 04:11:37;;;;;;;25.07;15.57;;;;;;;;;;5038529;28;20484;-81
2021/11/21 04:14:05;;;;;;;22.40;15.13;;;;;;;;;;5034179;28;20442;-77
2021/11/21 04:16:32;;;;;;;22.60;15.10;;;;;;;;;;5034682;28;20450;-77
2021/11/21 04:18:59;;;;;;;22.63;14.83;;;;;;;;;;5032925;28;20454;-81
2021/11/21 04:21:26;;;;;;;24.47;15.53;;;;;;;;;;5034775;28;20476;-77
2021/11/21 04:23:55;;;;;;;24.70;15.50;;;;;;;;;;5041823;28;20434;-79
2021/11/21 04:26:22;;;;;;;28.03;16.07;;;;;;;;;;5040280;28;20969;-79
2021/11/21 04:28:50;;;;;;;24.83;16.13;;;;;;;;;;5034685;28;20545;-79
2021/11/21 04:31:17;;;;;;;25.60;16.43;;;;;;;;;;5032236;28;20488;-77
2021/11/21 04:33:44;;;;;;;24.20;15.10;;;;;;;;;;5034516;28;20927;-78
2021/11/21 04:36:11;;;;;;;23.83;14.57;;;;;;;;;;5021613;28;20462;-80
2021/11/21 04:38:39;;;;;;;22.73;14.10;;;;;;;;;;5040564;28;20481;-77
2021/11/21 04:41:08;;;;;;;23.03;14.93;;;;;;;;;;5029553;28;21172;-77
2021/11/21 04:43:35;;;;;;;25.20;16.20;;;;;;;;;;5013215;28;20463;-79
2021/11/21 04:46:02;;;;;;;22.57;14.80;;;;;;;;;;5016858;28;20446;-77
2021/11/21 04:48:31;;;;;;;21.07;15.10;;;;;;;;;;5032016;28;20790;-79
2021/11/21 04:50:59;;;;;;;23.03;15.17;;;;;;;;;;5034406;28;20463;-81
2021/11/21 04:53:26;;;;;;;23.97;14.60;;;;;;;;;;5037556;28;20476;-78
2021/11/21 04:55:54;;;;;;;22.07;13.80;;;;;;;;;;5040853;28;20935;-79
2021/11/21 04:58:22;;;;;;;22.40;15.30;;;;;;;;;;5032202;28;20480;-79
2021/11/21 05:00:49;;;;;;;22.67;14.77;;;;;;;;;;5012604;28;20486;-79
2021/11/21 05:03:17;;;;;;;26.70;14.40;;;;;;;;;;5013289;28;20557;-80
2021/11/21 05:05:44;;;;;;;20.80;15.10;;;;;;;;;;5013567;28;20450;-81
2021/11/21 05:08:11;;;;;;;20.10;12.60;;;;;;;;;;5036932;28;20969;-80
2021/11/21 05:10:38;;;;;;;19.17;12.40;;;;;;;;;;5041781;28;20433;-77
2021/11/21 05:13:05;;;;;;;23.20;12.47;;;;;;;;;;5051856;28;20441;-79
2021/11/21 05:15:34;;;;;;;21.27;14.07;;;;;;;;;;5047216;28;20463;-79
2021/11/21 05:18:03;;;;;;;19.27;12.30;;;;;;;;;;5013621;28;20540;-77
2021/11/21 05:20:31;;;;;;;20.77;13.90;;;;;;;;;;5013970;28;20469;-77
2021/11/21 05:22:58;;;;;;;19.20;13.57;;;;;;;;;;5014959;28;20478;-80
2021/11/21 05:25:25;;;;;;;20.43;12.80;;;;;;;;;;5014055;28;20829;-77
2021/11/21 05:27:52;;;;;;;18.27;12.13;;;;;;;;;;5015501;28;20538;-79
2021/11/21 05:30:20;;;;;;;16.93;11.63;;;;;;;;;;5033519;28;20446;-79
2021/11/21 05:32:49;;;;;;;18.67;12.80;;;;;;;;;;5021576;28;20507;-78
2021/11/21 05:35:17;;;;;;;18.53;11.40;;;;;;;;;;5032730;28;20461;-80
2021/11/21 05:37:45;;;;;;;18.03;11.80;;;;;;;;;;5009031;28;20478;-78
2021/11/21 05:40:13;;;;;;;18.33;11.97;;;;;;;;;;5012357;28;20447;-83
2021/11/21 05:42:41;;;;;;;19.07;12.10;;;;;;;;;;4997082;28;20470;-80
2021/11/21 05:45:09;;;;;;;17.47;12.37;;;;;;;;;;5033682;28;20450;-82
2021/11/21 05:47:36;;;;;;;16.00;11.40;;;;;;;;;;5013306;28;20454;-78
2021/11/21 05:50:06;;;;;;;14.57;9.80;;;;;;;;;;5015474;28;20458;-78
2021/11/21 05:52:33;;;;;;;17.57;10.70;;;;;;;;;;5028631;28;20546;-77
2021/11/21 05:55:00;;;;;;;15.70;9.80;;;;;;;;;;5040435;28;20433;-78
2021/11/21 05:57:27;;;;;;;18.10;11.80;;;;;;;;;;5031260;28;20967;-79
2021/11/21 05:59:55;;;;;;;19.13;12.40;;;;;;;;;;5031731;28;20449;-78
2021/11/21 06:02:22;;;;;;;17.10;10.73;;;;;;;;;;5032169;28;20861;-79
2021/11/21 06:04:49;;;;;;;18.13;10.97;;;;;;;;;;5032636;28;20445;-79
2021/11/21 06:07:18;;;;;;;14.07;10.00;;;;;;;;;;5030387;28;20811;-78
2021/11/21 06:09:46;;;;;;;13.60;10.40;;;;;;;;;;5031529;28;21190;-78
2021/11/21 06:12:13;;;;;;;15.00;9.90;;;;;;;;;;5041284;28;20458;-78
2021/11/21 06:14:41;;;;;;;16.03;11.17;;;;;;;;;;5034482;28;21020;-79
2021/11/21 06:17:09;;;;;;;16.90;10.17;;;;;;;;;;5023790;28;20469;-79
2021/11/21 06:19:38;;;;;;;13.23;10.10;;;;;;;;;;5012623;28;20827;-81
2021/11/21 06:22:05;;;;;;;16.43;11.27;;;;;;;;;;5011932;28;20489;-79
2021/11/21 06:24:35;;;;;;;13.23;9.23;;;;;;;;;;5036883;28;20561;-79
2021/11/21 06:27:02;;;;;;;17.00;10.63;;;;;;;;;;5022459;28;20807;-79
2021/11/21 06:29:29;;;;;;;15.50;11.07;;;;;;;;;;5047014;28;20469;-79
2021/11/21 06:31:57;;;;;;;15.77;10.00;;;;;;;;;;5050988;28;20461;-78
2021/11/21 06:34:24;;;;;;;13.63;9.40;;;;;;;;;;5051608;28;20540;-78
2021/11/21 06:36:51;;;;;;;14.83;10.10;;;;;;;;;;5045627;28;20801;-78
2021/11/21 06:39:19;;;;;;;18.40;10.63;;;;;;;;;;5033123;28;20490;-79
2021/11/21 06:41:47;;;;;;;14.67;9.37;;;;;;;;;;5038008;28;20481;-78
2021/11/21 06:44:14;;;;;;;13.20;9.03;;;;;;;;;;5043320;28;20441;-81
2021/11/21 06:46:42;;;;;;;13.30;9.57;;;;;;;;;;5050856;28;20448;-78
2021/11/21 06:49:09;;;;;;;15.90;10.40;;;;;;;;;;5035055;28;20970;-81
2021/11/21 06:51:40;;;;;;;17.13;10.50;;;;;;;;;;5030908;28;20826;-80
2021/11/21 06:54:08;;;;;;;12.30;8.33;;;;;;;;;;4991026;28;20801;-79
2021/11/21 06:56:36;;;;;;;14.90;10.13;;;;;;;;;;4999373;28;20446;-78
2021/11/21 06:59:05;;;;;;;15.80;9.93;;;;;;;;;;4985181;28;20499;-79
2021/11/21 07:01:32;;;;;;;15.03;10.50;;;;;;;;;;4971776;28;20493;-78
2021/11/21 07:03:59;;;;;;;14.33;9.37;;;;;;;;;;4970925;28;20539;-76
2021/11/21 07:06:30;;;;;;;16.53;9.90;;;;;;;;;;4972124;28;20456;-77
2021/11/21 07:08:57;;;;;;;13.83;9.50;;;;;;;;;;4979463;28;20841;-77
2021/11/21 07:11:24;;;;;;;16.97;10.43;;;;;;;;;;4997140;28;20832;-76
2021/11/21 07:13:51;;;;;;;14.63;9.30;;;;;;;;;;4999325;28;20800;-76
2021/11/21 07:16:20;;;;;;;15.30;10.77;;;;;;;;;;4992069;28;20451;-76
2021/11/21 07:18:47;;;;;;;11.53;8.80;;;;;;;;;;4990078;28;21000;-76
2021/11/21 07:21:14;;;;;;;16.50;11.10;;;;;;;;;;4991712;28;20471;-75
2021/11/21 07:23:42;;;;;;;11.10;8.70;;;;;;;;;;4990656;28;21165;-75
2021/11/21 07:26:09;;;;;;;14.50;9.93;;;;;;;;;;4991872;28;20467;-76
2021/11/21 07:28:37;;;;;;;13.33;9.43;;;;;;;;;;4998247;28;20435;-76
2021/11/21 07:31:04;;;;;;;16.43;9.90;;;;;;;;;;4990909;28;20468;-78
2021/11/21 07:33:32;;;;;;;13.27;8.90;;;;;;;;;;4990056;28;20443;-75
2021/11/21 07:36:00;;;;;;;12.67;9.40;;;;;;;;;;4990361;28;20444;-76
2021/11/21 07:38:27;;;;;;;15.97;10.90;;;;;;;;;;4978907;28;20487;-77
2021/11/21 07:40:54;;;;;;;14.83;10.57;;;;;;;;;;4993807;28;20475;-82
2021/11/21 07:43:21;;;;;;;13.57;10.07;;;;;;;;;;4985545;28;20460;-79
2021/11/21 07:45:49;;;;;;;13.27;10.67;;;;;;;;;;4974463;28;20444;-75
2021/11/21 07:48:16;;;;;;;13.27;9.47;;;;;;;;;;4987248;28;20518;-77
2021/11/21 07:50:45;;;;;;;13.83;9.33;;;;;;;;;;4997665;28;20438;-76
2021/11/21 07:53:12;;;;;;;15.37;10.87;;;;;;;;;;5036502;28;20978;-78
2021/11/21 07:55:39;;;;;;;17.20;11.70;;;;;;;;;;5013898;28;20936;-77
2021/11/21 07:58:07;;;;;;;18.77;12.07;;;;;;;;;;5014008;28;20481;-78
2021/11/21 08:00:34;;;;;;;14.57;11.20;;;;;;;;;;5013877;28;20451;-76
2021/11/21 08:03:01;;;;;;;14.63;11.27;;;;;;;;;;5017359;28;20486;-77
2021/11/21 08:05:29;;;;;;;16.30;12.70;;;;;;;;;;5035011;28;20460;-76
2021/11/21 08:07:57;;;;;;;19.07;14.23;;;;;;;;;;5036210;28;20446;-75
2021/11/21 08:10:24;;;;;;;19.17;14.40;;;;;;;;;;5020238;28;20460;-74
2021/11/21 08:12:52;;;;;;;19.00;13.30;;;;;;;;;;5040736;28;20464;-76
2021/11/21 08:15:19;;;;;;;21.47;14.90;;;;;;;;;;5052002;28;20456;-75
2021/11/21 08:17:46;;;;;;;21.20;13.47;;;;;;;;;;5053095;28;20447;-76
2021/11/21 08:20:13;;;;;;;20.17;14.40;;;;;;;;;;5053934;28;20441;-76
2021/11/21 08:22:41;;;;;;;16.60;12.57;;;;;;;;;;5035164;28;20518;-75
2021/11/21 08:25:10;;;;;;;19.57;12.50;;;;;;;;;;5035951;28;20469;-76
2021/11/21 08:27:38;;;;;;;18.50;12.73;;;;;;;;;;5041363;28;20438;-75
2021/11/21 08:30:06;;;;;;;19.90;12.20;;;;;;;;;;5045659;28;20436;-76
2021/11/21 08:32:33;;;;;;;17.93;12.93;;;;;;;;;;5035714;28;20469;-76
2021/11/21 08:35:01;;;;;;;23.90;16.37;;;;;;;;;;5047328;28;20958;-76
2021/11/21 08:37:28;;;;;;;29.13;20.90;;;;;;;;;;5053741;28;20772;-77
2021/11/21 08:39:55;;;;;;;27.47;17.80;;;;;;;;;;5039434;28;20483;-75
2021/11/21 08:42:28;;;;;;;27.70;17.03;;;;;;;;;;5015666;28;20482;-78
2021/11/21 08:44:55;;;;;;;24.77;16.07;;;;;;;;;;5016028;28;20458;-78
2021/11/21 08:47:22;;;;;;;20.50;13.47;;;;;;;;;;5017147;28;20459;-77
2021/11/21 08:49:49;;;;;;;22.73;15.80;;;;;;;;;;5041281;28;20430;-77
2021/11/21 08:52:16;;;;;;;19.80;13.63;;;;;;;;;;5032362;28;20990;-78
2021/11/21 08:54:44;;;;;;;23.80;16.37;;;;;;;;;;5013293;28;20451;-78
2021/11/21 08:57:11;;;;;;;29.33;18.37;;;;;;;;;;5013454;28;20463;-79
2021/11/21 08:59:40;;;;;;;26.10;17.17;;;;;;;;;;5027953;28;20488;-79
2021/11/21 09:02:07;;;;;;;29.37;18.73;;;;;;;;;;5021932;28;20482;-79
2021/11/21 09:04:34;;;;;;;24.10;16.50;;;;;;;;;;5027438;28;20465;-77
2021/11/21 09:07:02;;;;;;;24.33;17.30;;;;;;;;;;5034895;28;20446;-79
2021/11/21 09:09:29;;;;;;;34.23;22.00;;;;;;;;;;5034854;28;20460;-77
2021/11/21 09:11:56;;;;;;;23.00;15.40;;;;;;;;;;5039850;28;20469;-80
2021/11/21 09:14:25;;;;;;;24.63;15.73;;;;;;;;;;5025570;28;20444;-77
2021/11/21 09:16:54;;;;;;;33.27;21.00;;;;;;;;;;5052865;28;21053;-77
2021/11/21 09:19:22;;;;;;;23.57;15.53;;;;;;;;;;5049623;28;20484;-76
2021/11/21 09:21:49;;;;;;;26.70;18.80;;;;;;;;;;4995090;28;20467;-77
2021/11/21 09:24:16;;;;;;;26.77;17.40;;;;;;;;;;5032478;28;20811;-81
2021/11/21 09:26:43;;;;;;;21.67;14.90;;;;;;;;;;5040638;28;20430;-76
2021/11/21 09:29:11;;;;;;;27.63;15.30;;;;;;;;;;5038248;28;20449;-76
2021/11/21 09:31:38;;;;;;;24.37;17.13;;;;;;;;;;5012696;28;20466;-77
2021/11/21 09:34:07;;;;;;;20.20;13.17;;;;;;;;;;5012502;28;20529;-77
2021/11/21 09:36:34;;;;;;;18.77;12.90;;;;;;;;;;5027814;28;20872;-79
2021/11/21 09:39:02;;;;;;;25.80;15.60;;;;;;;;;;5033085;28;20490;-77
2021/11/21 09:41:29;;;;;;;20.63;13.17;;;;;;;;;;5036536;28;20473;-76
2021/11/21 09:43:56;;;;;;;16.30;11.20;;;;;;;;;;5038827;28;20454;-75
2021/11/21 09:46:24;;;;;;;22.03;13.50;;;;;;;;;;5010733;28;20458;-76
2021/11/21 09:48:51;;;;;;;15.80;11.47;;;;;;;;;;5012392;28;20652;-77
2021/11/21 09:51:21;;;;;;;17.50;11.40;;;;;;;;;;5012583;28;20516;-76
2021/11/21 09:53:48;;;;;;;17.40;11.47;;;;;;;;;;5013351;28;20569;-76
2021/11/21 09:56:16;;;;;;;17.63;12.33;;;;;;;;;;5035055;28;20453;-80
2021/11/21 09:58:43;;;;;;;18.40;12.90;;;;;;;;;;5039167;28;20800;-77
2021/11/21 10:01:25;;;;;;;18.30;11.90;;;;;;;;;;5024346;28;20566;-75
2021/11/21 10:03:53;;;;;;;14.57;9.40;;;;;;;;;;4996493;28;20952;-76
2021/11/21 10:06:34;;;;;;;14.33;9.30;;;;;;;;;;5011856;28;20451;-76
2021/11/21 10:09:01;;;;;;;12.83;9.43;;;;;;;;;;5013273;28;20879;-80
2021/11/21 10:11:29;;;;;;;13.70;9.60;;;;;;;;;;5036602;28;20468;-80
2021/11/21 10:14:03;;;;;;;15.80;9.73;;;;;;;;;;5039676;28;20442;-77
2021/11/21 10:16:32;;;;;;;13.57;9.23;;;;;;;;;;4994823;28;20451;-76
2021/11/21 10:19:00;;;;;;;14.93;10.83;;;;;;;;;;5030392;28;20978;-78
2021/11/21 10:21:28;;;;;;;13.27;9.87;;;;;;;;;;5014510;28;20469;-79
2021/11/21 10:24:10;;;;;;;12.60;9.37;;;;;;;;;;5015336;28;20437;-76
2021/11/21 10:26:39;;;;;;;13.77;9.60;;;;;;;;;;4998210;28;20434;-78
2021/11/21 10:29:21;;;;;;;13.10;9.30;;;;;;;;;;5015564;28;20466;-79
2021/11/21 10:31:48;;;;;;;18.37;10.60;;;;;;;;;;5013147;28;20473;-79
2021/11/21 10:34:16;;;;;;;13.03;9.60;;;;;;;;;;5036946;28;21215;-76
2021/11/21 10:36:43;;;;;;;14.27;9.87;;;;;;;;;;5041970;28;20445;-77
2021/11/21 10:39:11;;;;;;;15.20;10.87;;;;;;;;;;5051481;28;20488;-77
2021/11/21 10:41:41;;;;;;;14.17;10.57;;;;;;;;;;5026260;28;20483;-78
2021/11/21 10:44:09;;;;;;;13.37;9.50;;;;;;;;;;5000240;28;20462;-79
2021/11/21 10:46:39;;;;;;;13.97;9.93;;;;;;;;;;5026456;28;20461;-77
2021/11/21 10:49:21;;;;;;;14.00;9.50;;;;;;;;;;5026328;28;20461;-76
2021/11/21 10:51:50;;;;;;;14.17;9.70;;;;;;;;;;5020397;28;20453;-78
2021/11/21 10:54:19;;;;;;;12.30;9.13;;;;;;;;;;5030071;28;20450;-77
2021/11/21 10:56:48;;;;;;;14.50;10.93;;;;;;;;;;5008457;28;20814;-79
2021/11/21 10:59:16;;;;;;;12.47;8.90;;;;;;;;;;5011209;28;20577;-79
2021/11/21 11:01:43;;;;;;;13.17;9.27;;;;;;;;;;5011249;28;20478;-77
2021/11/21 11:04:11;;;;;;;15.90;9.87;;;;;;;;;;5032903;28;20834;-76
2021/11/21 11:06:39;;;;;;;14.47;10.30;;;;;;;;;;5036462;28;20468;-77
2021/11/21 11:09:21;;;;;;;13.23;10.00;;;;;;;;;;5013909;28;20545;-79
2021/11/21 11:11:51;;;;;;;13.37;9.57;;;;;;;;;;5015340;28;20484;-79
2021/11/21 11:14:19;;;;;;;12.13;8.90;;;;;;;;;;5013516;28;20444;-77
2021/11/21 11:16:48;;;;;;;13.97;9.40;;;;;;;;;;5013582;28;20438;-79
2021/11/21 11:19:16;;;;;;;16.10;10.43;;;;;;;;;;5032657;28;20490;-78
2021/11/21 11:21:43;;;;;;;16.03;10.40;;;;;;;;;;5030360;28;20472;-77
2021/11/21 11:24:11;;;;;;;13.90;9.70;;;;;;;;;;5021505;28;20461;-78
2021/11/21 11:26:38;;;;;;;13.43;9.90;;;;;;;;;;5038517;28;20445;-79
2021/11/21 11:29:07;;;;;;;17.20;9.43;;;;;;;;;;5034086;28;20449;-76
2021/11/21 11:31:36;;;;;;;13.63;9.77;;;;;;;;;;5031605;28;20486;-75
2021/11/21 11:34:04;;;;;;;16.50;10.40;;;;;;;;;;5015136;28;20453;-79
2021/11/21 11:36:32;;;;;;;14.63;9.60;;;;;;;;;;5015701;28;20443;-80
2021/11/21 11:39:01;;;;;;;16.23;11.10;;;;;;;;;;5029516;28;20869;-77
2021/11/21 11:41:29;;;;;;;14.50;9.20;;;;;;;;;;5022698;28;20489;-80
2021/11/21 11:43:56;;;;;;;11.93;9.23;;;;;;;;;;5032463;28;20457;-81
2021/11/21 11:46:27;;;;;;;15.17;10.10;;;;;;;;;;5021717;28;20455;-76
2021/11/21 11:48:56;;;;;;;12.07;8.53;;;;;;;;;;5024317;28;20476;-78
2021/11/21 11:51:49;;;;;;;12.70;9.70;;;;;;;;;;5033770;28;20522;-81
2021/11/21 11:54:23;;;;;;;11.50;9.40;;;;;;;;;;5018914;28;20503;-80
2021/11/21 11:56:52;;;;;;;14.60;9.83;;;;;;;;;;5034771;28;20437;-83
2021/11/21 11:59:25;;;;;;;12.47;8.63;;;;;;;;;;5034461;28;20547;-77
2021/11/21 12:01:58;;;;;;;15.20;10.73;;;;;;;;;;5018437;28;20474;-78
2021/11/21 12:04:40;;;;;;;13.43;8.60;;;;;;;;;;5016659;28;20870;-77
2021/11/21 12:07:21;;;;;;;11.90;9.73;;;;;;;;;;5016111;28;20819;-82
2021/11/21 12:09:57;;;;;;;14.23;9.60;;;;;;;;;;5039468;28;20439;-79
2021/11/21 12:12:44;;;;;;;11.70;9.10;;;;;;;;;;5038057;28;20975;-80
2021/11/21 12:15:26;;;;;;;16.60;10.87;;;;;;;;;;5019745;28;20458;-79
2021/11/21 12:17:55;;;;;;;13.97;10.20;;;;;;;;;;5013883;28;20438;-76
2021/11/21 12:20:37;;;;;;;18.90;9.67;;;;;;;;;;5014366;28;20598;-82
2021/11/21 12:23:04;;;;;;;13.83;10.87;;;;;;;;;;4999631;28;20474;-78
2021/11/21 12:25:32;;;;;;;17.40;13.17;;;;;;;;;;5026966;28;21338;-80
2021/11/21 12:28:00;;;;;;;13.03;10.13;;;;;;;;;;5041418;28;20789;-77
2021/11/21 12:30:29;;;;;;;19.93;12.90;;;;;;;;;;5020062;28;20830;-76
2021/11/21 12:32:59;;;;;;;15.93;11.33;;;;;;;;;;5012886;28;20657;-80
2021/11/21 12:35:28;;;;;;;16.20;12.20;;;;;;;;;;5033329;28;20441;-82
2021/11/21 12:37:56;;;;;;;19.20;11.10;;;;;;;;;;5028393;28;20463;-82
2021/11/21 12:40:25;;;;;;;15.60;10.70;;;;;;;;;;5033141;28;20490;-80
2021/11/21 12:42:55;;;;;;;15.87;10.70;;;;;;;;;;5022535;28;20473;-76
2021/11/21 12:45:23;;;;;;;16.33;9.60;;;;;;;;;;5031467;28;20469;-77
2021/11/21 12:47:52;;;;;;;13.07;9.23;;;;;;;;;;5015213;28;20442;-79
2021/11/21 12:50:22;;;;;;;13.40;8.90;;;;;;;;;;5032910;28;20445;-77
2021/11/21 12:52:50;;;;;;;12.37;9.13;;;;;;;;;;5015920;28;20465;-78
2021/11/21 12:55:18;;;;;;;12.43;8.57;;;;;;;;;;5029690;28;20462;-81
2021/11/21 12:57:47;;;;;;;13.80;8.57;;;;;;;;;;5038691;28;20460;-80
2021/11/21 13:00:15;;;;;;;12.43;8.30;;;;;;;;;;5017049;28;20473;-82
2021/11/21 13:02:42;;;;;;;11.33;7.40;;;;;;;;;;5022211;28;20509;-75
2021/11/21 13:05:09;;;;;;;14.57;7.50;;;;;;;;;;5012339;28;20470;-79
2021/11/21 13:07:39;;;;;;;11.60;6.70;;;;;;;;;;5012506;28;20459;-76
2021/11/21 13:10:09;;;;;;;15.80;7.30;;;;;;;;;;5031080;28;20457;-80
2021/11/21 13:12:38;;;;;;;11.20;6.73;;;;;;;;;;5038670;28;20553;-76
2021/11/21 13:15:06;;;;;;;12.93;6.10;;;;;;;;;;5016099;28;20663;-81
2021/11/21 13:17:33;;;;;;;15.90;7.67;;;;;;;;;;5032358;28;20928;-76
2021/11/21 13:20:04;;;;;;;15.07;7.73;;;;;;;;;;5026691;28;20486;-80
2021/11/21 13:22:46;;;;;;;12.30;6.80;;;;;;;;;;5013126;28;20462;-78
2021/11/21 13:25:26;;;;;;;10.73;6.73;;;;;;;;;;5030437;28;20462;-80
2021/11/21 13:27:54;;;;;;;14.83;7.10;;;;;;;;;;5034259;28;20512;-79
2021/11/21 13:30:21;;;;;;;10.50;5.97;;;;;;;;;;5033500;28;20775;-76
2021/11/21 13:32:49;;;;;;;10.10;6.63;;;;;;;;;;5034408;28;20474;-77
2021/11/21 13:35:18;;;;;;;9.17;6.10;;;;;;;;;;5040541;28;20446;-77
2021/11/21 13:37:46;;;;;;;12.33;7.10;;;;;;;;;;5032901;28;20442;-76
2021/11/21 13:40:14;;;;;;;9.47;6.47;;;;;;;;;;5014589;28;20515;-77
2021/11/21 13:42:43;;;;;;;10.37;6.60;;;;;;;;;;5030601;28;20509;-78
2021/11/21 13:45:10;;;;;;;12.33;6.57;;;;;;;;;;5032283;28;20954;-79
2021/11/21 13:47:37;;;;;;;9.53;6.17;;;;;;;;;;5033483;28;20466;-81
2021/11/21 13:50:06;;;;;;;10.70;6.20;;;;;;;;;;5034549;28;20445;-80
2021/11/21 13:52:34;;;;;;;10.33;7.10;;;;;;;;;;5031734;28;20489;-79
2021/11/21 13:55:03;;;;;;;9.20;6.73;;;;;;;;;;5035266;28;20467;-80
2021/11/21 13:57:35;;;;;;;13.00;6.50;;;;;;;;;;5022463;28;20953;-78
2021/11/21 14:00:09;;;;;;;11.03;6.40;;;;;;;;;;5031111;28;20508;-78
2021/11/21 14:02:37;;;;;;;13.23;6.63;;;;;;;;;;5028030;28;21093;-78
2021/11/21 14:05:06;;;;;;;10.60;6.90;;;;;;;;;;5030525;28;20533;-77
2021/11/21 14:07:34;;;;;;;9.97;6.10;;;;;;;;;;4996404;28;20455;-78
2021/11/21 14:10:02;;;;;;;11.20;6.60;;;;;;;;;;5030600;28;20815;-77
2021/11/21 14:12:31;;;;;;;9.90;6.53;;;;;;;;;;5020493;28;20449;-76
2021/11/21 14:15:08;;;;;;;13.40;6.17;;;;;;;;;;5017895;28;20847;-80
2021/11/21 14:17:39;;;;;;;12.33;6.90;;;;;;;;;;5031371;28;20445;-80
2021/11/21 14:20:08;;;;;;;16.63;7.20;;;;;;;;;;5031893;28;20473;-77
2021/11/21 14:22:38;;;;;;;9.60;5.77;;;;;;;;;;5016862;28;20586;-80
2021/11/21 14:25:06;;;;;;;8.43;5.70;;;;;;;;;;5020753;28;20835;-80
2021/11/21 14:27:33;;;;;;;9.40;6.40;;;;;;;;;;5038967;28;20772;-80